createdAt,value
2018-12-15T00:00:26.998Z,64.77
2018-12-15T00:01:27.422Z,63.31
2018-12-15T00:02:26.983Z,63.44
2018-12-15T00:03:26.954Z,63.73
2018-12-15T00:04:26.983Z,64.59
2018-12-15T00:05:26.944Z,63.76
2018-12-15T00:06:26.919Z,63.76
2018-12-15T00:07:26.922Z,64.17
2018-12-15T00:08:26.892Z,63.13
2018-12-15T00:09:26.905Z,62.71
2018-12-15T00:10:26.878Z,63.23
2018-12-15T00:11:26.872Z,62.29
2018-12-15T00:12:26.857Z,62.19
2018-12-15T00:13:26.842Z,61.66
2018-12-15T00:14:26.834Z,62.92
2018-12-15T00:15:26.836Z,63.16
2018-12-15T00:16:26.826Z,62.84
2018-12-15T00:17:26.801Z,62.84
2018-12-15T00:18:26.795Z,63.23
2018-12-15T00:19:26.775Z,62.60
2018-12-15T00:20:26.787Z,63.13
2018-12-15T00:21:26.760Z,63.06
2018-12-15T00:22:26.748Z,62.74
2018-12-15T00:23:26.731Z,62.32
2018-12-15T00:24:26.747Z,62.29
2018-12-15T00:25:26.720Z,62.71
2018-12-15T00:26:26.705Z,62.92
2018-12-15T00:27:26.703Z,62.29
2018-12-15T00:28:26.678Z,62.32
2018-12-15T00:29:26.690Z,63.57
2018-12-15T00:30:26.676Z,64.31
2018-12-15T00:31:26.648Z,63.55
2018-12-15T00:32:26.646Z,63.34
2018-12-15T00:33:26.660Z,63.13
2018-12-15T00:34:26.632Z,63.23
2018-12-15T00:35:26.621Z,62.60
2018-12-15T00:36:26.593Z,63.34
2018-12-15T00:37:26.589Z,64.17
2018-12-15T00:38:26.585Z,63.76
2018-12-15T00:39:26.588Z,64.39
2018-12-15T00:40:26.573Z,64.28
2018-12-15T00:41:26.559Z,65.11
2018-12-15T00:42:26.545Z,64.39
2018-12-15T00:43:26.517Z,63.65
2018-12-15T00:44:26.519Z,63.23
2018-12-15T00:45:26.506Z,63.13
2018-12-15T00:46:26.534Z,62.50
2018-12-15T00:47:26.483Z,61.56
2018-12-15T00:48:26.471Z,61.66
2018-12-15T00:49:26.464Z,61.69
2018-12-15T00:50:26.451Z,62.40
2018-12-15T00:51:26.453Z,62.63
2018-12-15T00:52:26.475Z,62.74
2018-12-15T00:53:26.420Z,62.60
2018-12-15T00:54:26.414Z,62.19
2018-12-15T00:55:26.399Z,63.65
2018-12-15T00:56:26.404Z,63.96
2018-12-15T00:57:26.389Z,64.00
2018-12-15T00:58:26.363Z,63.23
2018-12-15T00:59:26.371Z,63.23
2018-12-15T01:00:26.339Z,63.26
2018-12-15T01:01:26.345Z,63.55
2018-12-15T01:02:26.329Z,62.53
2018-12-15T01:03:26.310Z,62.95
2018-12-15T01:04:26.302Z,62.84
2018-12-15T01:05:26.289Z,63.02
2018-12-15T01:06:26.279Z,64.59
2018-12-15T01:07:26.288Z,64.90
2018-12-15T01:08:26.250Z,63.57
2018-12-15T01:09:26.256Z,63.44
2018-12-15T01:10:26.238Z,63.86
2018-12-15T01:11:26.225Z,64.70
2018-12-15T01:12:26.246Z,63.65
2018-12-15T01:13:26.201Z,63.65
2018-12-15T01:14:26.198Z,64.17
2018-12-15T01:15:26.187Z,62.82
2018-12-15T01:16:26.174Z,62.92
2018-12-15T01:17:26.190Z,62.82
2018-12-15T01:18:26.177Z,63.13
2018-12-15T01:19:26.151Z,63.37
2018-12-15T01:20:26.133Z,63.16
2018-12-15T01:21:26.115Z,63.86
2018-12-15T01:22:26.118Z,64.49
2018-12-15T01:23:26.094Z,63.96
2018-12-15T01:24:26.093Z,64.28
2018-12-15T01:25:26.102Z,63.26
2018-12-15T01:26:26.119Z,63.34
2018-12-15T01:27:26.065Z,63.34
2018-12-15T01:28:26.088Z,63.76
2018-12-15T01:29:26.059Z,64.73
2018-12-15T01:30:26.044Z,64.59
2018-12-15T01:31:26.015Z,63.65
2018-12-15T01:32:26.016Z,63.23
2018-12-15T01:33:26.018Z,64.17
2018-12-15T01:34:25.979Z,65.25
2018-12-15T01:35:25.988Z,65.11
2018-12-15T01:36:25.963Z,64.59
2018-12-15T01:37:25.965Z,65.01
2018-12-15T01:38:25.951Z,65.64
2018-12-15T01:39:25.939Z,63.76
2018-12-15T01:40:25.921Z,64.49
2018-12-15T01:41:25.919Z,63.86
2018-12-15T01:42:25.899Z,63.02
2018-12-15T01:43:25.905Z,63.34
2018-12-15T01:44:25.878Z,63.34
2018-12-15T01:45:25.869Z,64.07
2018-12-15T01:46:25.851Z,64.70
2018-12-15T01:47:27.060Z,65.11
2018-12-15T01:48:25.847Z,64.80
2018-12-15T01:49:25.837Z,64.94
2018-12-15T01:50:25.822Z,65.22
2018-12-15T01:51:25.816Z,65.33
2018-12-15T01:52:25.792Z,65.67
2018-12-15T01:53:25.782Z,65.53
2018-12-15T01:54:25.788Z,65.88
2018-12-15T01:55:25.757Z,65.95
2018-12-15T01:56:25.760Z,65.43
2018-12-15T01:57:25.743Z,65.46
2018-12-15T01:58:25.739Z,66.47
2018-12-15T01:59:25.721Z,66.78
2018-12-15T02:00:25.730Z,66.06
2018-12-15T02:01:25.701Z,67.00
2018-12-15T02:02:25.697Z,66.68
2018-12-15T02:03:25.682Z,66.06
2018-12-15T02:04:25.675Z,64.90
2018-12-15T02:05:25.655Z,66.06
2018-12-15T02:06:25.668Z,65.53
2018-12-15T02:07:25.639Z,65.11
2018-12-15T02:08:25.652Z,64.59
2018-12-15T02:09:25.617Z,65.43
2018-12-15T02:10:25.608Z,65.95
2018-12-15T02:11:25.614Z,65.95
2018-12-15T02:12:25.584Z,66.58
2018-12-15T02:13:25.582Z,65.74
2018-12-15T02:14:25.585Z,64.70
2018-12-15T02:15:25.621Z,65.53
2018-12-15T02:16:25.540Z,65.95
2018-12-15T02:17:25.543Z,65.33
2018-12-15T02:18:25.524Z,66.16
2018-12-15T02:19:25.523Z,66.37
2018-12-15T02:20:25.509Z,66.89
2018-12-15T02:21:25.505Z,67.52
2018-12-15T02:22:25.488Z,66.68
2018-12-15T02:23:25.476Z,66.58
2018-12-15T02:24:25.481Z,66.06
2018-12-15T02:25:25.461Z,65.46
2018-12-15T02:26:25.437Z,65.64
2018-12-15T02:27:25.431Z,65.95
2018-12-15T02:28:25.423Z,67.31
2018-12-15T02:29:25.413Z,67.00
2018-12-15T02:30:25.414Z,67.62
2018-12-15T02:31:25.405Z,67.52
2018-12-15T02:32:25.386Z,67.31
2018-12-15T02:33:25.370Z,67.10
2018-12-15T02:34:25.359Z,67.65
2018-12-15T02:35:25.361Z,67.41
2018-12-15T02:36:25.350Z,67.21
2018-12-15T02:37:25.324Z,67.31
2018-12-15T02:38:25.314Z,67.31
2018-12-15T02:39:25.309Z,67.00
2018-12-15T02:40:25.330Z,66.78
2018-12-15T02:41:25.291Z,66.78
2018-12-15T02:42:25.274Z,67.31
2018-12-15T02:43:25.270Z,67.52
2018-12-15T02:44:25.259Z,68.67
2018-12-15T02:45:25.256Z,69.09
2018-12-15T02:46:25.245Z,68.67
2018-12-15T02:47:25.239Z,68.15
2018-12-15T02:48:25.208Z,68.77
2018-12-15T02:49:25.203Z,68.77
2018-12-15T02:50:25.190Z,68.49
2018-12-15T02:51:25.201Z,68.98
2018-12-15T02:52:25.189Z,69.40
2018-12-15T02:53:25.162Z,69.61
2018-12-15T02:54:25.157Z,68.35
2018-12-15T02:55:25.145Z,69.51
2018-12-15T02:56:25.121Z,68.77
2018-12-15T02:57:25.129Z,68.57
2018-12-15T02:58:25.110Z,68.77
2018-12-15T02:59:25.093Z,67.21
2018-12-15T03:00:25.090Z,67.10
2018-12-15T03:01:25.080Z,67.83
2018-12-15T03:02:25.080Z,65.53
2018-12-15T03:03:25.049Z,66.16
2018-12-15T03:04:25.066Z,67.34
2018-12-15T03:05:25.044Z,67.41
2018-12-15T03:06:25.021Z,67.21
2018-12-15T03:07:25.026Z,68.35
2018-12-15T03:08:25.009Z,68.88
2018-12-15T03:09:24.990Z,69.09
2018-12-15T03:10:24.982Z,67.73
2018-12-15T03:11:24.966Z,66.89
2018-12-15T03:12:24.975Z,65.64
2018-12-15T03:13:24.956Z,67.52
2018-12-15T03:14:24.978Z,65.95
2018-12-15T03:15:24.935Z,65.01
2018-12-15T03:16:24.914Z,65.11
2018-12-15T03:17:24.945Z,64.70
2018-12-15T03:18:24.900Z,64.70
2018-12-15T03:19:24.900Z,66.47
2018-12-15T03:20:24.873Z,68.77
2018-12-15T03:21:24.864Z,67.62
2018-12-15T03:22:24.862Z,65.11
2018-12-15T03:23:24.853Z,65.01
2018-12-15T03:24:24.836Z,64.70
2018-12-15T03:25:24.830Z,64.70
2018-12-15T03:26:24.815Z,65.11
2018-12-15T03:27:24.823Z,65.01
2018-12-15T03:28:24.792Z,65.64
2018-12-15T03:29:24.796Z,64.59
2018-12-15T03:30:24.772Z,66.06
2018-12-15T03:31:24.754Z,65.43
2018-12-15T03:32:24.760Z,64.90
2018-12-15T03:33:24.747Z,65.22
2018-12-15T03:34:24.747Z,65.53
2018-12-15T03:35:24.714Z,65.01
2018-12-15T03:36:24.772Z,66.16
2018-12-15T03:37:24.731Z,65.01
2018-12-15T03:38:24.696Z,65.33
2018-12-15T03:39:24.685Z,65.22
2018-12-15T03:40:24.673Z,65.43
2018-12-15T03:41:24.656Z,66.06
2018-12-15T03:42:24.651Z,65.84
2018-12-15T03:43:24.648Z,66.16
2018-12-15T03:44:24.631Z,67.21
2018-12-15T03:45:24.636Z,66.58
2018-12-15T03:46:24.616Z,65.43
2018-12-15T03:47:24.589Z,65.11
2018-12-15T03:48:24.577Z,64.90
2018-12-15T03:49:24.599Z,64.80
2018-12-15T03:50:24.589Z,64.39
2018-12-15T03:51:24.557Z,64.41
2018-12-15T03:52:24.538Z,65.11
2018-12-15T03:53:24.529Z,65.01
2018-12-15T03:54:24.521Z,65.11
2018-12-15T03:55:24.520Z,66.30
2018-12-15T03:56:24.498Z,65.01
2018-12-15T03:57:24.487Z,64.70
2018-12-15T03:58:24.475Z,64.59
2018-12-15T03:59:24.487Z,64.73
2018-12-15T04:00:24.484Z,64.80
2018-12-15T04:01:24.439Z,65.22
2018-12-15T04:02:24.431Z,65.04
2018-12-15T04:03:24.416Z,65.25
2018-12-15T04:04:24.416Z,65.01
2018-12-15T04:05:24.406Z,64.39
2018-12-15T04:06:24.397Z,64.80
2018-12-15T04:07:24.378Z,65.11
2018-12-15T04:08:24.367Z,65.01
2018-12-15T04:09:24.372Z,65.14
2018-12-15T04:10:24.347Z,65.53
2018-12-15T04:11:24.358Z,65.64
2018-12-15T04:12:24.328Z,65.11
2018-12-15T04:13:24.328Z,65.33
2018-12-15T04:14:24.299Z,65.14
2018-12-15T04:15:24.309Z,64.73
2018-12-15T04:16:24.281Z,64.83
2018-12-15T04:17:24.283Z,65.01
2018-12-15T04:18:24.264Z,65.33
2018-12-15T04:19:24.275Z,65.64
2018-12-15T04:20:24.239Z,65.11
2018-12-15T04:21:24.226Z,65.11
2018-12-15T04:22:24.237Z,65.22
2018-12-15T04:23:24.233Z,65.22
2018-12-15T04:24:24.192Z,65.33
2018-12-15T04:25:24.196Z,65.01
2018-12-15T04:26:24.174Z,65.01
2018-12-15T04:27:24.164Z,65.14
2018-12-15T04:28:24.170Z,64.39
2018-12-15T04:29:24.156Z,65.14
2018-12-15T04:30:24.181Z,64.62
2018-12-15T04:31:24.123Z,64.70
2018-12-15T04:32:24.124Z,64.94
2018-12-15T04:33:24.105Z,65.36
2018-12-15T04:34:24.086Z,65.36
2018-12-15T04:35:24.077Z,65.14
2018-12-15T04:36:24.205Z,64.80
2018-12-15T04:37:24.068Z,65.14
2018-12-15T04:38:24.049Z,65.01
2018-12-15T04:39:24.039Z,65.14
2018-12-15T04:40:24.069Z,64.59
2018-12-15T04:41:24.039Z,64.70
2018-12-15T04:42:24.038Z,65.53
2018-12-15T04:43:24.003Z,66.58
2018-12-15T04:44:23.985Z,65.46
2018-12-15T04:45:23.965Z,65.67
2018-12-15T04:46:23.979Z,65.43
2018-12-15T04:47:23.961Z,65.56
2018-12-15T04:48:23.960Z,65.01
2018-12-15T04:49:23.945Z,64.90
2018-12-15T04:50:23.923Z,64.94
2018-12-15T04:51:23.920Z,65.36
2018-12-15T04:52:23.900Z,65.14
2018-12-15T04:53:23.883Z,64.90
2018-12-15T04:54:23.890Z,65.14
2018-12-15T04:55:23.868Z,65.04
2018-12-15T04:56:23.867Z,65.64
2018-12-15T04:57:23.843Z,65.14
2018-12-15T04:58:23.835Z,65.14
2018-12-15T04:59:23.828Z,65.22
2018-12-15T05:00:23.815Z,65.22
2018-12-15T05:01:23.822Z,65.67
2018-12-15T05:02:23.802Z,65.01
2018-12-15T05:03:23.796Z,66.58
2018-12-15T05:04:23.780Z,64.73
2018-12-15T05:05:23.768Z,64.70
2018-12-15T05:06:23.746Z,65.22
2018-12-15T05:07:23.754Z,64.80
2018-12-15T05:08:23.738Z,65.11
2018-12-15T05:09:23.729Z,64.49
2018-12-15T05:10:23.703Z,64.59
2018-12-15T05:11:23.709Z,64.07
2018-12-15T05:12:23.702Z,64.70
2018-12-15T05:13:23.684Z,64.80
2018-12-15T05:14:23.673Z,65.22
2018-12-15T05:15:23.654Z,66.27
2018-12-15T05:16:23.647Z,65.84
2018-12-15T05:17:23.639Z,65.25
2018-12-15T05:18:23.640Z,65.01
2018-12-15T05:19:23.637Z,65.04
2018-12-15T05:20:23.604Z,64.80
2018-12-15T05:21:23.597Z,64.90
2018-12-15T05:22:23.598Z,65.36
2018-12-15T05:23:23.572Z,64.62
2018-12-15T05:24:23.556Z,64.62
2018-12-15T05:25:23.545Z,66.89
2018-12-15T05:26:23.549Z,65.53
2018-12-15T05:27:23.543Z,65.11
2018-12-15T05:28:23.522Z,65.11
2018-12-15T05:29:23.503Z,65.53
2018-12-15T05:30:23.496Z,65.33
2018-12-15T05:31:23.490Z,65.11
2018-12-15T05:32:23.507Z,64.90
2018-12-15T05:33:23.476Z,65.01
2018-12-15T05:34:23.471Z,65.22
2018-12-15T05:35:23.445Z,65.33
2018-12-15T05:36:23.451Z,65.22
2018-12-15T05:37:23.420Z,65.46
2018-12-15T05:38:23.406Z,65.56
2018-12-15T05:39:23.398Z,64.70
2018-12-15T05:40:23.397Z,65.04
2018-12-15T05:41:23.385Z,65.64
2018-12-15T05:42:23.393Z,65.43
2018-12-15T05:43:23.367Z,65.01
2018-12-15T05:44:23.349Z,65.88
2018-12-15T05:45:23.348Z,65.36
2018-12-15T05:46:23.346Z,65.04
2018-12-15T05:47:23.330Z,66.27
2018-12-15T05:48:25.383Z,65.53
2018-12-15T05:49:23.288Z,66.27
2018-12-15T05:50:23.278Z,65.22
2018-12-15T05:51:23.274Z,64.90
2018-12-15T05:52:23.282Z,65.14
2018-12-15T05:53:23.265Z,64.94
2018-12-15T05:54:23.246Z,65.33
2018-12-15T05:55:23.252Z,65.11
2018-12-15T05:56:23.234Z,65.53
2018-12-15T05:57:23.205Z,65.43
2018-12-15T05:58:23.203Z,65.22
2018-12-15T05:59:23.190Z,65.11
2018-12-15T06:00:23.176Z,65.11
2018-12-15T06:01:23.174Z,65.14
2018-12-15T06:02:23.159Z,65.04
2018-12-15T06:03:23.183Z,65.04
2018-12-15T06:04:23.183Z,65.43
2018-12-15T06:05:23.160Z,66.08
2018-12-15T06:06:23.120Z,65.64
2018-12-15T06:07:23.108Z,65.67
2018-12-15T06:08:23.108Z,66.06
2018-12-15T06:09:23.101Z,66.19
2018-12-15T06:10:23.068Z,66.30
2018-12-15T06:11:23.061Z,65.98
2018-12-15T06:12:23.056Z,65.67
2018-12-15T06:13:23.045Z,65.88
2018-12-15T06:14:23.038Z,65.67
2018-12-15T06:15:23.020Z,65.64
2018-12-15T06:16:23.014Z,65.53
2018-12-15T06:17:23.001Z,65.43
2018-12-15T06:18:23.011Z,65.22
2018-12-15T06:19:22.994Z,65.64
2018-12-15T06:20:22.966Z,65.33
2018-12-15T06:21:22.951Z,65.53
2018-12-15T06:22:22.941Z,65.74
2018-12-15T06:23:22.932Z,65.95
2018-12-15T06:24:22.936Z,65.77
2018-12-15T06:25:22.922Z,65.74
2018-12-15T06:26:22.907Z,65.98
2018-12-15T06:27:22.891Z,66.47
2018-12-15T06:28:22.903Z,66.47
2018-12-15T06:29:22.876Z,65.95
2018-12-15T06:30:22.865Z,66.27
2018-12-15T06:31:22.849Z,66.58
2018-12-15T06:32:22.834Z,65.84
2018-12-15T06:33:22.825Z,65.84
2018-12-15T06:34:22.827Z,65.67
2018-12-15T06:35:22.807Z,65.36
2018-12-15T06:36:22.811Z,65.56
2018-12-15T06:37:22.797Z,65.43
2018-12-15T06:38:22.817Z,65.95
2018-12-15T06:39:22.782Z,66.68
2018-12-15T06:40:22.750Z,66.47
2018-12-15T06:41:22.768Z,65.74
2018-12-15T06:42:22.733Z,65.64
2018-12-15T06:43:22.720Z,66.89
2018-12-15T06:44:22.730Z,67.31
2018-12-15T06:45:22.719Z,67.00
2018-12-15T06:46:22.687Z,66.89
2018-12-15T06:47:22.684Z,66.89
2018-12-15T06:48:22.684Z,66.58
2018-12-15T06:49:22.664Z,66.89
2018-12-15T06:50:22.676Z,66.47
2018-12-15T06:51:22.658Z,65.84
2018-12-15T06:52:22.625Z,65.84
2018-12-15T06:53:22.611Z,66.27
2018-12-15T06:54:22.608Z,67.10
2018-12-15T06:55:22.605Z,66.68
2018-12-15T06:56:22.607Z,67.41
2018-12-15T06:57:22.577Z,67.00
2018-12-15T06:58:22.608Z,66.89
2018-12-15T06:59:22.555Z,67.00
2018-12-15T07:00:22.582Z,66.89
2018-12-15T07:01:22.539Z,67.41
2018-12-15T07:02:22.531Z,68.46
2018-12-15T07:03:22.519Z,67.10
2018-12-15T07:04:22.505Z,67.41
2018-12-15T07:05:22.505Z,67.21
2018-12-15T07:06:22.503Z,66.06
2018-12-15T07:07:22.472Z,67.00
2018-12-15T07:08:22.472Z,67.52
2018-12-15T07:09:22.475Z,67.21
2018-12-15T07:10:22.462Z,67.38
2018-12-15T07:11:22.429Z,67.62
2018-12-15T07:12:22.452Z,67.31
2018-12-15T07:13:22.404Z,67.10
2018-12-15T07:14:22.420Z,67.62
2018-12-15T07:15:22.389Z,67.41
2018-12-15T07:16:22.403Z,67.31
2018-12-15T07:17:22.370Z,67.28
2018-12-15T07:18:22.356Z,67.41
2018-12-15T07:19:22.358Z,67.21
2018-12-15T07:20:22.340Z,67.31
2018-12-15T07:21:22.339Z,66.89
2018-12-15T07:22:22.328Z,67.21
2018-12-15T07:23:22.305Z,67.21
2018-12-15T07:24:22.328Z,67.41
2018-12-15T07:25:22.282Z,67.52
2018-12-15T07:26:22.291Z,67.52
2018-12-15T07:27:22.258Z,67.62
2018-12-15T07:28:22.259Z,67.31
2018-12-15T07:29:22.268Z,67.21
2018-12-15T07:30:22.235Z,67.31
2018-12-15T07:31:22.222Z,67.00
2018-12-15T07:32:22.241Z,67.31
2018-12-15T07:33:22.202Z,67.52
2018-12-15T07:34:22.203Z,67.73
2018-12-15T07:35:22.181Z,66.89
2018-12-15T07:36:22.171Z,67.00
2018-12-15T07:37:22.191Z,67.21
2018-12-15T07:38:22.196Z,68.15
2018-12-15T07:39:22.145Z,67.41
2018-12-15T07:40:22.136Z,67.73
2018-12-15T07:41:22.128Z,67.73
2018-12-15T07:42:22.118Z,67.62
2018-12-15T07:43:22.110Z,67.10
2018-12-15T07:44:22.094Z,67.21
2018-12-15T07:45:22.072Z,67.21
2018-12-15T07:46:22.063Z,67.10
2018-12-15T07:47:22.091Z,67.00
2018-12-15T07:48:22.050Z,67.52
2018-12-15T07:49:22.080Z,67.62
2018-12-15T07:50:22.027Z,67.31
2018-12-15T07:51:22.011Z,67.73
2018-12-15T07:52:22.000Z,67.41
2018-12-15T07:53:22.012Z,67.21
2018-12-15T07:54:21.981Z,67.52
2018-12-15T07:55:21.987Z,66.89
2018-12-15T07:56:21.967Z,67.10
2018-12-15T07:57:21.958Z,67.94
2018-12-15T07:58:21.969Z,68.67
2018-12-15T07:59:21.936Z,67.41
2018-12-15T08:00:21.925Z,67.10
2018-12-15T08:01:21.910Z,67.52
2018-12-15T08:02:21.908Z,68.88
2018-12-15T08:03:21.916Z,68.04
2018-12-15T08:04:21.885Z,68.77
2018-12-15T08:05:21.870Z,67.94
2018-12-15T08:06:21.852Z,67.38
2018-12-15T08:07:21.839Z,67.41
2018-12-15T08:08:21.833Z,67.07
2018-12-15T08:09:21.840Z,67.38
2018-12-15T08:10:21.819Z,67.38
2018-12-15T08:11:21.808Z,67.73
2018-12-15T08:12:21.811Z,67.31
2018-12-15T08:13:22.844Z,67.10
2018-12-15T08:14:21.795Z,67.73
2018-12-15T08:15:21.780Z,67.62
2018-12-15T08:16:21.750Z,67.31
2018-12-15T08:17:21.745Z,67.94
2018-12-15T08:18:21.735Z,67.49
2018-12-15T08:19:21.727Z,67.73
2018-12-15T08:20:21.793Z,67.18
2018-12-15T08:21:21.696Z,67.41
2018-12-15T08:22:26.058Z,67.18
2018-12-15T08:23:21.704Z,67.62
2018-12-15T08:24:21.674Z,68.53
2018-12-15T08:25:21.658Z,68.85
2018-12-15T08:26:21.644Z,68.85
2018-12-15T08:27:21.709Z,68.74
2018-12-15T08:28:21.635Z,68.63
2018-12-15T08:29:21.675Z,69.16
2018-12-15T08:30:21.654Z,68.43
2018-12-15T08:31:21.610Z,67.49
2018-12-15T08:32:21.582Z,68.74
2018-12-15T08:33:21.589Z,68.43
2018-12-15T08:34:21.560Z,68.95
2018-12-15T08:35:21.546Z,68.74
2018-12-15T08:36:21.554Z,68.74
2018-12-15T08:37:21.536Z,68.63
2018-12-15T08:38:21.523Z,68.63
2018-12-15T08:39:21.507Z,69.40
2018-12-15T08:40:21.516Z,68.53
2018-12-15T08:41:21.504Z,68.43
2018-12-15T08:42:21.500Z,68.74
2018-12-15T08:43:21.506Z,68.53
2018-12-15T08:44:21.463Z,68.85
2018-12-15T08:45:21.437Z,68.01
2018-12-15T08:46:21.474Z,68.74
2018-12-15T08:47:21.421Z,68.74
2018-12-15T08:48:21.411Z,69.16
2018-12-15T08:49:21.404Z,68.74
2018-12-15T08:50:21.391Z,68.74
2018-12-15T08:51:21.392Z,69.06
2018-12-15T08:52:21.364Z,69.37
2018-12-15T08:53:21.392Z,68.74
2018-12-15T08:54:21.355Z,69.37
2018-12-15T08:55:21.343Z,68.53
2018-12-15T08:56:21.356Z,69.16
2018-12-15T08:57:21.312Z,68.95
2018-12-15T08:58:21.301Z,68.95
2018-12-15T08:59:21.288Z,69.26
2018-12-15T09:00:21.283Z,69.16
2018-12-15T09:01:21.300Z,69.37
2018-12-15T09:02:21.262Z,69.16
2018-12-15T09:03:21.266Z,69.26
2018-12-15T09:04:21.257Z,68.43
2018-12-15T09:05:21.250Z,68.53
2018-12-15T09:06:21.269Z,69.16
2018-12-15T09:07:21.254Z,68.32
2018-12-15T09:08:21.194Z,68.53
2018-12-15T09:09:21.242Z,68.43
2018-12-15T09:10:21.172Z,68.74
2018-12-15T09:11:21.180Z,69.37
2018-12-15T09:12:21.167Z,69.06
2018-12-15T09:13:21.143Z,69.16
2018-12-15T09:14:21.134Z,69.16
2018-12-15T09:15:21.120Z,68.74
2018-12-15T09:16:26.352Z,68.95
2018-12-15T09:17:22.126Z,69.16
2018-12-15T09:18:21.099Z,68.43
2018-12-15T09:19:21.216Z,69.37
2018-12-15T09:20:21.079Z,69.16
2018-12-15T09:21:21.059Z,68.95
2018-12-15T09:22:21.059Z,68.74
2018-12-15T09:23:21.055Z,69.26
2018-12-15T09:24:21.035Z,69.34
2018-12-15T09:25:21.018Z,69.47
2018-12-15T09:26:21.029Z,69.44
2018-12-15T09:27:22.035Z,69.37
2018-12-15T09:28:21.029Z,69.16
2018-12-15T09:29:21.031Z,68.29
2018-12-15T09:30:20.987Z,69.37
2018-12-15T09:31:20.990Z,69.26
2018-12-15T09:32:21.043Z,68.92
2018-12-15T09:33:20.945Z,69.58
2018-12-15T09:34:20.953Z,69.54
2018-12-15T09:35:20.941Z,69.02
2018-12-15T09:36:20.918Z,69.02
2018-12-15T09:37:20.899Z,69.06
2018-12-15T09:38:20.879Z,69.13
2018-12-15T09:39:20.871Z,69.02
2018-12-15T09:40:20.856Z,68.95
2018-12-15T09:41:20.854Z,68.50
2018-12-15T09:42:20.850Z,69.44
2018-12-15T09:43:20.854Z,69.34
2018-12-15T09:44:20.814Z,69.13
2018-12-15T09:45:20.811Z,68.40
2018-12-15T09:46:20.807Z,69.26
2018-12-15T09:47:20.793Z,69.02
2018-12-15T09:48:20.780Z,68.71
2018-12-15T09:49:20.756Z,69.02
2018-12-15T09:50:20.742Z,69.44
2018-12-15T09:51:20.752Z,68.50
2018-12-15T09:52:20.733Z,68.50
2018-12-15T09:53:20.722Z,68.40
2018-12-15T09:54:20.753Z,68.60
2018-12-15T09:55:20.714Z,69.23
2018-12-15T09:56:20.724Z,69.02
2018-12-15T09:57:20.734Z,69.02
2018-12-15T09:58:20.680Z,68.60
2018-12-15T09:59:20.660Z,68.60
2018-12-15T10:00:20.644Z,68.60
2018-12-15T10:01:20.648Z,68.29
2018-12-15T10:02:20.617Z,68.71
2018-12-15T10:03:20.609Z,68.71
2018-12-15T10:04:20.633Z,68.60
2018-12-15T10:05:20.609Z,69.13
2018-12-15T10:06:20.595Z,69.02
2018-12-15T10:07:20.605Z,69.23
2018-12-15T10:08:20.599Z,68.19
2018-12-15T10:09:20.549Z,69.34
2018-12-15T10:10:20.560Z,67.98
2018-12-15T10:11:20.529Z,67.98
2018-12-15T10:12:20.519Z,68.71
2018-12-15T10:13:20.510Z,68.71
2018-12-15T10:14:20.496Z,69.44
2018-12-15T10:15:20.519Z,68.50
2018-12-15T10:16:20.477Z,68.50
2018-12-15T10:17:20.469Z,69.10
2018-12-15T10:18:20.487Z,68.05
2018-12-15T10:19:24.258Z,68.37
2018-12-15T10:20:20.432Z,67.35
2018-12-15T10:21:20.449Z,67.11
2018-12-15T10:22:20.410Z,67.63
2018-12-15T10:23:20.400Z,68.57
2018-12-15T10:24:20.395Z,67.85
2018-12-15T10:25:20.382Z,68.57
2018-12-15T10:26:20.376Z,68.16
2018-12-15T10:27:20.376Z,68.16
2018-12-15T10:28:20.376Z,67.43
2018-12-15T10:29:20.355Z,67.11
2018-12-15T10:30:20.349Z,66.69
2018-12-15T10:31:20.321Z,67.95
2018-12-15T10:32:20.307Z,67.35
2018-12-15T10:33:20.294Z,67.11
2018-12-15T10:34:20.283Z,67.95
2018-12-15T10:35:20.301Z,67.53
2018-12-15T10:36:20.267Z,67.35
2018-12-15T10:37:20.259Z,67.01
2018-12-15T10:38:20.259Z,68.16
2018-12-15T10:39:20.236Z,67.43
2018-12-15T10:40:20.238Z,67.85
2018-12-15T10:41:20.209Z,67.43
2018-12-15T10:42:20.201Z,68.05
2018-12-15T10:43:20.214Z,68.47
2018-12-15T10:44:20.203Z,68.68
2018-12-15T10:45:20.176Z,67.85
2018-12-15T10:46:20.169Z,67.32
2018-12-15T10:47:20.158Z,67.43
2018-12-15T10:48:20.144Z,67.08
2018-12-15T10:49:20.140Z,67.29
2018-12-15T10:50:20.135Z,67.22
2018-12-15T10:51:20.143Z,67.53
2018-12-15T10:52:20.100Z,67.40
2018-12-15T10:53:20.084Z,67.95
2018-12-15T10:54:20.078Z,67.19
2018-12-15T10:55:20.079Z,67.29
2018-12-15T10:56:20.082Z,67.43
2018-12-15T10:57:20.056Z,66.77
2018-12-15T10:58:20.042Z,68.23
2018-12-15T10:59:20.043Z,67.29
2018-12-15T11:00:20.016Z,67.29
2018-12-15T11:01:20.023Z,67.22
2018-12-15T11:02:19.999Z,67.11
2018-12-15T11:03:19.990Z,66.77
2018-12-15T11:04:20.014Z,67.08
2018-12-15T11:05:19.961Z,66.88
2018-12-15T11:06:19.947Z,67.08
2018-12-15T11:07:19.943Z,66.80
2018-12-15T11:08:19.938Z,67.22
2018-12-15T11:09:19.938Z,66.88
2018-12-15T11:10:19.920Z,66.88
2018-12-15T11:11:19.922Z,67.19
2018-12-15T11:12:19.895Z,66.25
2018-12-15T11:13:19.879Z,66.66
2018-12-15T11:14:19.896Z,66.35
2018-12-15T11:15:19.860Z,66.88
2018-12-15T11:16:19.862Z,66.49
2018-12-15T11:17:19.847Z,66.04
2018-12-15T11:18:19.824Z,66.77
2018-12-15T11:19:19.815Z,66.88
2018-12-15T11:20:19.809Z,66.66
2018-12-15T11:21:19.816Z,67.40
2018-12-15T11:22:19.797Z,67.19
2018-12-15T11:23:19.776Z,66.88
2018-12-15T11:24:19.784Z,66.04
2018-12-15T11:25:19.747Z,66.25
2018-12-15T11:26:19.739Z,66.98
2018-12-15T11:27:19.739Z,67.05
2018-12-15T11:28:19.723Z,65.52
2018-12-15T11:29:19.717Z,66.35
2018-12-15T11:30:19.705Z,65.73
2018-12-15T11:31:19.711Z,65.31
2018-12-15T11:32:19.689Z,65.52
2018-12-15T11:33:19.667Z,65.73
2018-12-15T11:34:19.660Z,65.62
2018-12-15T11:35:19.647Z,65.94
2018-12-15T11:36:19.637Z,66.35
2018-12-15T11:37:19.655Z,66.25
2018-12-15T11:38:19.619Z,65.83
2018-12-15T11:39:19.603Z,65.20
2018-12-15T11:40:19.600Z,65.94
2018-12-15T11:41:19.592Z,65.83
2018-12-15T11:42:19.594Z,65.73
2018-12-15T11:43:19.562Z,66.04
2018-12-15T11:44:19.554Z,65.83
2018-12-15T11:45:19.533Z,66.14
2018-12-15T11:46:19.521Z,65.31
2018-12-15T11:47:19.517Z,65.52
2018-12-15T11:48:19.522Z,65.94
2018-12-15T11:49:19.495Z,66.04
2018-12-15T11:50:19.479Z,65.83
2018-12-15T11:51:19.489Z,66.04
2018-12-15T11:52:19.459Z,66.35
2018-12-15T11:53:19.469Z,66.04
2018-12-15T11:54:19.442Z,65.80
2018-12-15T11:55:19.431Z,65.31
2018-12-15T11:56:19.417Z,65.10
2018-12-15T11:57:19.399Z,65.28
2018-12-15T11:58:19.394Z,65.91
2018-12-15T11:59:19.396Z,66.46
2018-12-15T12:00:19.386Z,66.01
2018-12-15T12:01:19.366Z,65.28
2018-12-15T12:02:19.357Z,65.38
2018-12-15T12:03:19.343Z,65.38
2018-12-15T12:04:19.325Z,64.86
2018-12-15T12:05:19.326Z,64.89
2018-12-15T12:06:19.312Z,64.86
2018-12-15T12:07:19.306Z,64.86
2018-12-15T12:08:19.296Z,65.28
2018-12-15T12:09:19.271Z,65.48
2018-12-15T12:10:19.288Z,65.52
2018-12-15T12:11:19.263Z,65.70
2018-12-15T12:12:19.242Z,65.17
2018-12-15T12:13:19.257Z,65.48
2018-12-15T12:14:19.236Z,64.55
2018-12-15T12:15:19.212Z,64.55
2018-12-15T12:16:19.195Z,64.34
2018-12-15T12:17:19.191Z,64.89
2018-12-15T12:18:19.186Z,65.28
2018-12-15T12:19:19.178Z,64.86
2018-12-15T12:20:19.158Z,64.97
2018-12-15T12:21:19.146Z,64.97
2018-12-15T12:22:19.170Z,64.97
2018-12-15T12:23:19.127Z,64.97
2018-12-15T12:24:19.128Z,64.97
2018-12-15T12:25:19.104Z,65.17
2018-12-15T12:26:19.092Z,64.86
2018-12-15T12:27:19.093Z,65.28
2018-12-15T12:28:19.080Z,64.97
2018-12-15T12:29:19.054Z,65.17
2018-12-15T12:30:19.043Z,64.76
2018-12-15T12:31:19.032Z,64.86
2018-12-15T12:32:19.047Z,64.97
2018-12-15T12:33:19.014Z,64.79
2018-12-15T12:34:19.005Z,64.86
2018-12-15T12:35:18.994Z,65.07
2018-12-15T12:36:18.976Z,65.07
2018-12-15T12:37:18.990Z,65.00
2018-12-15T12:38:18.959Z,65.28
2018-12-15T12:39:18.953Z,64.86
2018-12-15T12:40:18.937Z,66.01
2018-12-15T12:41:18.935Z,65.38
2018-12-15T12:42:18.928Z,65.70
2018-12-15T12:43:18.899Z,65.17
2018-12-15T12:44:18.899Z,64.76
2018-12-15T12:45:18.894Z,65.17
2018-12-15T12:46:18.881Z,65.07
2018-12-15T12:47:18.895Z,64.86
2018-12-15T12:48:18.848Z,64.65
2018-12-15T12:49:18.840Z,65.28
2018-12-15T12:50:18.826Z,64.86
2018-12-15T12:51:18.815Z,64.34
2018-12-15T12:52:18.833Z,64.97